Gurli — SLEG — position and weather

sailwx.info

Track history (hours):
 
Tides and Currents Weather Stations Pressure Air Temp Water Temp Dewpoint Dewpoint Depression Visibility Wind Speed Wind Dir Waves Ship Positions

Gurli

Last reported at 2015-Mar-27 20:33 UTC. Time now 2015-Mar-27 20:55 UTC.
Position N 59°20' E 018°05'.

Length 21 m.

Type: Passenger vessel. MMSI: 265687640.

Date/timePositionNaut miles runAvg speedWind from/ knotsBaromVisibWave heightAir tempDewpointWater temp
2015-Mar-27 20:33N 59°20' E 018°05'0 0.2
2015-Mar-27 19:33N 59°20' E 018°05'2 2.3
2015-Mar-27 18:32N 59°20' E 018°09'2 2.1
2015-Mar-27 17:33N 59°19' E 018°06'2 2.1
2015-Mar-27 16:33N 59°21' E 018°09'2 2.1
2015-Mar-27 15:33N 59°19' E 018°07'2 1.5
2015-Mar-27 14:32N 59°19' E 018°10'3 2.6
2015-Mar-27 13:33N 59°20' E 018°05'2 2.3
2015-Mar-27 12:34N 59°21' E 018°09'2 2.0
2015-Mar-27 11:33N 59°19' E 018°07'1 1.0
2015-Mar-27 10:32N 59°19' E 018°09'0 0.4
2015-Mar-27 09:30N 59°19' E 018°10'1 1.6
2015-Mar-27 08:33N 59°19' E 018°07'2 1.9
2015-Mar-27 07:28N 59°21' E 018°09'2 2.5
2015-Mar-27 06:33N 59°19' E 018°06'1 1.1
2015-Mar-27 05:33N 59°19' E 018°08'2 1.8
2015-Mar-27 04:31N 59°20' E 018°05'0 0.0
2015-Mar-27 03:31N 59°20' E 018°05'0 0.0
2015-Mar-27 02:31N 59°20' E 018°05'0 0.0
2015-Mar-27 01:32N 59°20' E 018°05'0 0.0
2015-Mar-27 00:31N 59°20' E 018°05'0 0.0
2015-Mar-26 23:31N 59°20' E 018°05'0 0.0
2015-Mar-26 22:33N 59°20' E 018°05'0 0.0
2015-Mar-26 21:33N 59°20' E 018°05'0 0.0
2015-Mar-26 20:32N 59°20' E 018°05'0 0.2
2015-Mar-26 19:33N 59°20' E 018°05'2 2.3
2015-Mar-26 18:31N 59°20' E 018°10'2 2.2
2015-Mar-26 17:33N 59°20' E 018°05'2 2.2
2015-Mar-26 16:33N 59°21' E 018°09'2 2.0
2015-Mar-26 15:33N 59°19' E 018°07'1 1.5
2015-Mar-26 14:33N 59°19' E 018°10'2 2.5
2015-Mar-26 13:33N 59°20' E 018°05'2 2.3
2015-Mar-26 12:33N 59°20' E 018°09'2 1.8
2015-Mar-26 11:33N 59°19' E 018°07'1 0.7
2015-Mar-26 10:31N 59°19' E 018°08'1 0.6
2015-Mar-26 09:31N 59°19' E 018°10'2 1.6
2015-Mar-26 08:34N 59°19' E 018°07'2 2.0
2015-Mar-26 07:29N 59°21' E 018°09'2 2.4
2015-Mar-26 06:33N 59°19' E 018°06'1 0.9
2015-Mar-26 05:32N 59°19' E 018°07'2 1.6
2015-Mar-26 04:30N 59°20' E 018°05'0 0.0
2015-Mar-26 03:33N 59°20' E 018°05'0 0.0
2015-Mar-26 02:33N 59°20' E 018°05'0 0.0
2015-Mar-26 01:33N 59°20' E 018°05'0 0.0
2015-Mar-26 00:33N 59°20' E 018°05'0 0.0
2015-Mar-25 23:33N 59°20' E 018°05'0 0.0
2015-Mar-25 22:33N 59°20' E 018°05'0 0.0
2015-Mar-25 21:33N 59°20' E 018°05'0 0.0
2015-Mar-25 20:33N 59°20' E 018°05'0 0.0
2015-Mar-25 19:33N 59°20' E 018°05'2 2.4
2015-Mar-25 18:33N 59°20' E 018°09'2 2.2
2015-Mar-25 17:33N 59°20' E 018°05'2 2.2
2015-Mar-25 16:33N 59°21' E 018°09'2 2.1
2015-Mar-25 15:33N 59°19' E 018°07'2 1.5
2015-Mar-25 14:33N 59°19' E 018°10'3 2.7
2015-Mar-25 13:33N 59°20' E 018°05'2 2.4
2015-Mar-25 12:33N 59°21' E 018°09'2 2.1
2015-Mar-25 11:33N 59°19' E 018°07'1 1.0
2015-Mar-25 10:33N 59°19' E 018°09'0 0.4
2015-Mar-25 09:32N 59°19' E 018°09'1 1.5
2015-Mar-25 08:33N 59°19' E 018°07'2 2.0
2015-Mar-25 07:30N 59°21' E 018°09'2 2.4
2015-Mar-25 06:33N 59°19' E 018°06'1 1.1
2015-Mar-25 05:33N 59°19' E 018°08'2 1.8
2015-Mar-25 04:31N 59°20' E 018°05'0 0.0
2015-Mar-25 03:31N 59°20' E 018°05'0 0.0
2015-Mar-25 02:31N 59°20' E 018°05'0 0.0
2015-Mar-25 01:31N 59°20' E 018°05'0 0.0
2015-Mar-25 00:28N 59°20' E 018°05'0 0.0
2015-Mar-24 23:31N 59°20' E 018°05'0 0.0
2015-Mar-24 22:31N 59°20' E 018°05'0 0.0
2015-Mar-24 21:32N 59°20' E 018°05'0 0.0
2015-Mar-24 20:32N 59°20' E 018°05'0 0.1
2015-Mar-24 19:33N 59°20' E 018°05'2 2.3
2015-Mar-24 18:30N 59°20' E 018°10'2 2.6
2015-Mar-24 17:33N 59°20' E 018°05'2 2.3
2015-Mar-24 16:32N 59°20' E 018°09'2 1.8
2015-Mar-24 15:33N 59°19' E 018°07'1 1.0
2015-Mar-24 14:28N 59°19' E 018°09'2 2.2
2015-Mar-24 13:33N 59°20' E 018°05'2 2.1
2015-Mar-24 12:31N 59°20' E 018°09'2 1.6
2015-Mar-24 11:33N 59°19' E 018°07'1 0.8
2015-Mar-24 10:34N 59°19' E 018°08'1 1.2
2015-Mar-24 09:22N 59°21' E 018°09'2 2.6
2015-Mar-24 08:33N 59°19' E 018°07'2 2.0
2015-Mar-24 07:30N 59°21' E 018°09'2 2.4
2015-Mar-24 06:33N 59°19' E 018°06'1 1.2
2015-Mar-24 05:33N 59°19' E 018°08'2 1.7
2015-Mar-24 04:28N 59°20' E 018°05'0 0.0
2015-Mar-24 03:31N 59°20' E 018°05'0 0.0
2015-Mar-24 02:31N 59°20' E 018°05'0 0.0
2015-Mar-24 01:31N 59°20' E 018°05'0 0.0
2015-Mar-24 00:31N 59°20' E 018°05'0 0.0
2015-Mar-23 23:31N 59°20' E 018°05'0 0.0
2015-Mar-23 22:31N 59°20' E 018°05'0 0.0
2015-Mar-23 21:31N 59°20' E 018°05'0 0.0
2015-Mar-23 20:31N 59°20' E 018°05'0 0.0
2015-Mar-23 19:33N 59°20' E 018°05'3 2.4
2015-Mar-23 18:31N 59°20' E 018°10'2 2.6
2015-Mar-23 17:33N 59°20' E 018°05'2 2.4
2015-Mar-23 16:33N 59°21' E 018°09'2 2.0
2015-Mar-23 15:33N 59°19' E 018°07'1 1.3
2015-Mar-23 14:31N 59°19' E 018°09'3 2.6
2015-Mar-23 13:33N 59°20' E 018°05'2 2.4
2015-Mar-23 12:32N 59°20' E 018°09'2 1.9
2015-Mar-23 11:32N 59°19' E 018°07'1 1.2
2015-Mar-23 10:32N 59°19' E 018°09'0 0.2
2015-Mar-23 09:33N 59°19' E 018°09'1 1.3
2015-Mar-23 08:33N 59°19' E 018°07'2 1.9
2015-Mar-23 07:30N 59°21' E 018°09'2 2.2
2015-Mar-23 06:31N 59°20' E 018°05'1 1.2
2015-Mar-23 05:33N 59°19' E 018°08'2 1.7
2015-Mar-23 04:32N 59°20' E 018°05'0 0.0
2015-Mar-23 03:32N 59°20' E 018°05'0 0.0
2015-Mar-23 02:32N 59°20' E 018°05'0 0.0
2015-Mar-23 01:32N 59°20' E 018°05'0 0.0
2015-Mar-23 00:32N 59°20' E 018°05'0 0.0
2015-Mar-22 23:32N 59°20' E 018°05'0 0.0
2015-Mar-22 22:32N 59°20' E 018°05'0 0.0
2015-Mar-22 21:32N 59°20' E 018°05'0 0.0
2015-Mar-22 20:32N 59°20' E 018°05'0 0.0
2015-Mar-22 19:31N 59°20' E 018°05'0 0.1
2015-Mar-22 18:33N 59°20' E 018°05'2 2.4
2015-Mar-22 17:33N 59°20' E 018°09'2 2.5
2015-Mar-22 16:33N 59°20' E 018°05'3 2.5
2015-Mar-22 15:33N 59°20' E 018°10'3 2.5
2015-Mar-22 14:33N 59°20' E 018°05'2 2.4
2015-Mar-22 13:32N 59°20' E 018°09'2 2.4
2015-Mar-22 12:33N 59°20' E 018°05'2 1.6
2015-Mar-22 11:33N 59°19' E 018°07'1 1.0
2015-Mar-22 10:32N 59°19' E 018°09'1 0.9
2015-Mar-22 09:33N 59°19' E 018°07'1 0.9
2015-Mar-22 08:33N 59°19' E 018°09'2 2.4
2015-Mar-22 07:33N 59°20' E 018°05'0 0.0
2015-Mar-22 06:33N 59°20' E 018°05'0 0.0
2015-Mar-22 05:30N 59°20' E 018°05'0 0.0
2015-Mar-22 04:33N 59°20' E 018°05'0 0.0
2015-Mar-22 03:33N 59°20' E 018°05'0 0.0
2015-Mar-22 02:33N 59°20' E 018°05'0 0.0
2015-Mar-22 01:33N 59°20' E 018°05'0 0.0
2015-Mar-22 00:33N 59°20' E 018°05'0 0.0
2015-Mar-21 23:33N 59°20' E 018°05'0 0.0
2015-Mar-21 22:33N 59°20' E 018°05'0 0.0
2015-Mar-21 21:33N 59°20' E 018°05'0 0.0
2015-Mar-21 20:33N 59°20' E 018°05'0 0.0
2015-Mar-21 19:33N 59°20' E 018°05'0 0.0
2015-Mar-21 18:33N 59°20' E 018°05'2 2.3
2015-Mar-21 17:29N 59°20' E 018°09'2 2.5
2015-Mar-21 16:33N 59°20' E 018°05'2 2.3
2015-Mar-21 15:31N 59°20' E 018°10'3 2.6
2015-Mar-21 14:33N 59°20' E 018°05'2 2.4
2015-Mar-21 13:32N 59°20' E 018°09'2 2.3
2015-Mar-21 12:31N 59°20' E 018°05'1 1.6
2015-Mar-21 11:33N 59°19' E 018°07'1 1.2
2015-Mar-21 10:33N 59°19' E 018°09'1 1.1
2015-Mar-21 09:33N 59°19' E 018°07'1 0.8
2015-Mar-21 08:30N 59°19' E 018°09'2 2.2
2015-Mar-21 07:31N 59°20' E 018°05'0 0.0
2015-Mar-21 06:31N 59°20' E 018°05'0 0.0
2015-Mar-21 05:31N 59°20' E 018°05'0 0.0
2015-Mar-21 04:29N 59°20' E 018°05'0 0.0
2015-Mar-21 03:31N 59°20' E 018°05'0 0.0
2015-Mar-21 02:31N 59°20' E 018°05'0 0.0
2015-Mar-21 01:32N 59°20' E 018°05'0 0.0
2015-Mar-21 00:31N 59°20' E 018°05'0 0.0
2015-Mar-20 23:31N 59°20' E 018°05'0 0.0
2015-Mar-20 22:32N 59°20' E 018°05'0 0.0
2015-Mar-20 21:29N 59°20' E 018°05'0 0.0
2015-Mar-20 20:32N 59°20' E 018°05'0 0.0
2015-Mar-20 19:32N 59°20' E 018°05'2 1.8
2015-Mar-20 18:15N 59°21' E 018°09'2 2.1
2015-Mar-20 17:31N 59°19' E 018°08'2 1.2
2015-Mar-20 16:13N 59°21' E 018°09'1 2.1
2015-Mar-20 15:33N 59°19' E 018°09'1 1.0
2015-Mar-20 14:33N 59°19' E 018°07'1 0.9
2015-Mar-20 13:29N 59°19' E 018°09'1 1.1
2015-Mar-20 12:33N 59°19' E 018°07'1 0.9
2015-Mar-20 11:29N 59°19' E 018°09'1 1.0
2015-Mar-20 10:33N 59°19' E 018°07'1 0.9
2015-Mar-20 09:30N 59°19' E 018°09'1 0.8
2015-Mar-20 08:33N 59°19' E 018°08'1 0.9
2015-Mar-20 07:33N 59°19' E 018°10'1 1.1
2015-Mar-20 06:33N 59°19' E 018°07'1 1.0
2015-Mar-20 05:31N 59°19' E 018°10'3 2.7
2015-Mar-20 04:33N 59°20' E 018°05'0 0.0
2015-Mar-20 03:33N 59°20' E 018°05'0 0.0
2015-Mar-20 02:33N 59°20' E 018°05'0 0.0
2015-Mar-20 01:33N 59°20' E 018°05'0 0.0
2015-Mar-20 00:30N 59°20' E 018°05'0 0.0
2015-Mar-19 23:33N 59°20' E 018°05'0 0.0
2015-Mar-19 22:32N 59°20' E 018°05'0 0.0
2015-Mar-19 21:32N 59°20' E 018°05'0 0.0
2015-Mar-19 20:32N 59°20' E 018°05'1 0.5
2015-Mar-19 19:33N 59°20' E 018°05'2 2.2
2015-Mar-19 18:33N 59°19' E 018°10'1 0.6
2015-Mar-19 17:33N 59°19' E 018°08'0 0.1
2015-Mar-19 16:33N 59°19' E 018°08'0 0.3
2015-Mar-19 15:31N 59°19' E 018°09'1 0.8
2015-Mar-19 14:33N 59°19' E 018°07'1 1.1
2015-Mar-19 13:32N 59°19' E 018°10'1 1.1
2015-Mar-19 12:33N 59°19' E 018°07'1 1.1
2015-Mar-19 11:33N 59°19' E 018°10'1 1.1
2015-Mar-19 10:33N 59°19' E 018°07'1 0.9
2015-Mar-19 09:30N 59°19' E 018°09'1 0.8
2015-Mar-19 08:32N 59°19' E 018°08'1 0.9
2015-Mar-19 07:33N 59°19' E 018°10'1 1.1
2015-Mar-19 06:33N 59°19' E 018°07'1 1.0
2015-Mar-19 05:31N 59°19' E 018°10'3 2.7
2015-Mar-19 04:33N 59°20' E 018°05'0 0.0
2015-Mar-19 03:33N 59°20' E 018°05'0 0.0
2015-Mar-19 02:33N 59°20' E 018°05'0 0.0
2015-Mar-19 01:33N 59°20' E 018°05'0 0.0
2015-Mar-19 00:33N 59°20' E 018°05'0 0.0
2015-Mar-18 23:33N 59°20' E 018°05'0 0.0
2015-Mar-18 22:33N 59°20' E 018°05'0 0.0
2015-Mar-18 21:33N 59°20' E 018°05'0 0.0
2015-Mar-18 20:33N 59°20' E 018°05'0 0.0
2015-Mar-18 19:33N 59°20' E 018°05'3 2.5
2015-Mar-18 18:28N 59°19' E 018°10'1 0.7
2015-Mar-18 17:31N 59°19' E 018°08'0 0.1
2015-Mar-18 16:33N 59°19' E 018°08'0 0.4
2015-Mar-18 15:33N 59°19' E 018°09'1 1.0
2015-Mar-18 14:33N 59°19' E 018°07'1 0.9
2015-Mar-18 13:28N 59°19' E 018°09'1 1.0
2015-Mar-18 12:33N 59°19' E 018°07'1 0.7
2015-Mar-18 11:29N 59°19' E 018°09'1 0.7
2015-Mar-18 10:33N 59°19' E 018°08'1 1.1
2015-Mar-18 09:33N 59°19' E 018°10'1 0.9
2015-Mar-18 08:33N 59°19' E 018°08'1 0.9
2015-Mar-18 07:33N 59°19' E 018°10'1 1.1
2015-Mar-18 06:33N 59°19' E 018°07'1 1.1
2015-Mar-18 05:33N 59°19' E 018°10'3 2.6
2015-Mar-18 04:33N 59°20' E 018°05'0 0.0
2015-Mar-18 03:30N 59°20' E 018°05'0 0.0
2015-Mar-18 02:30N 59°20' E 018°05'0 0.0
2015-Mar-18 01:33N 59°20' E 018°05'0 0.0
2015-Mar-18 00:30N 59°20' E 018°05'0 0.0
2015-Mar-17 23:33N 59°20' E 018°05'0 0.0
2015-Mar-17 22:33N 59°20' E 018°05'0 0.0
2015-Mar-17 21:33N 59°20' E 018°05'0 0.0
2015-Mar-17 20:33N 59°20' E 018°05'  
Track history (hours):
 
Tides and Currents Weather Stations Pressure Air Temp Water Temp Dewpoint Dewpoint Depression Visibility Wind Speed Wind Dir Waves Ship Positions

Gurli

Last reported at 2015-Mar-27 20:33 UTC. Time now 2015-Mar-27 20:55 UTC.
Position N 59°20' E 018°05'.

Length 21 m.

Type: Passenger vessel. MMSI: 265687640.

Date/timePositionNaut miles runAvg speedWind from/ knotsBaromVisibWave heightAir tempDewpointWater temp
2015-Mar-27 20:33N 59°20' E 018°05'0 0.2
2015-Mar-27 19:33N 59°20' E 018°05'2 2.3
2015-Mar-27 18:32N 59°20' E 018°09'2 2.1
2015-Mar-27 17:33N 59°19' E 018°06'2 2.1
2015-Mar-27 16:33N 59°21' E 018°09'2 2.1
2015-Mar-27 15:33N 59°19' E 018°07'2 1.5
2015-Mar-27 14:32N 59°19' E 018°10'3 2.6
2015-Mar-27 13:33N 59°20' E 018°05'2 2.3
2015-Mar-27 12:34N 59°21' E 018°09'2 2.0
2015-Mar-27 11:33N 59°19' E 018°07'1 1.0
2015-Mar-27 10:32N 59°19' E 018°09'0 0.4
2015-Mar-27 09:30N 59°19' E 018°10'1 1.6
2015-Mar-27 08:33N 59°19' E 018°07'2 1.9
2015-Mar-27 07:28N 59°21' E 018°09'2 2.5
2015-Mar-27 06:33N 59°19' E 018°06'1 1.1
2015-Mar-27 05:33N 59°19' E 018°08'2 1.8
2015-Mar-27 04:31N 59°20' E 018°05'0 0.0
2015-Mar-27 03:31N 59°20' E 018°05'0 0.0
2015-Mar-27 02:31N 59°20' E 018°05'0 0.0
2015-Mar-27 01:32N 59°20' E 018°05'0 0.0
2015-Mar-27 00:31N 59°20' E 018°05'0 0.0
2015-Mar-26 23:31N 59°20' E 018°05'0 0.0
2015-Mar-26 22:33N 59°20' E 018°05'0 0.0
2015-Mar-26 21:33N 59°20' E 018°05'0 0.0
2015-Mar-26 20:32N 59°20' E 018°05'0 0.2
2015-Mar-26 19:33N 59°20' E 018°05'2 2.3
2015-Mar-26 18:31N 59°20' E 018°10'2 2.2
2015-Mar-26 17:33N 59°20' E 018°05'2 2.2
2015-Mar-26 16:33N 59°21' E 018°09'2 2.0
2015-Mar-26 15:33N 59°19' E 018°07'1 1.5
2015-Mar-26 14:33N 59°19' E 018°10'2 2.5
2015-Mar-26 13:33N 59°20' E 018°05'2 2.3
2015-Mar-26 12:33N 59°20' E 018°09'2 1.8
2015-Mar-26 11:33N 59°19' E 018°07'1 0.7
2015-Mar-26 10:31N 59°19' E 018°08'1 0.6
2015-Mar-26 09:31N 59°19' E 018°10'2 1.6
2015-Mar-26 08:34N 59°19' E 018°07'2 2.0
2015-Mar-26 07:29N 59°21' E 018°09'2 2.4
2015-Mar-26 06:33N 59°19' E 018°06'1 0.9
2015-Mar-26 05:32N 59°19' E 018°07'2 1.6
2015-Mar-26 04:30N 59°20' E 018°05'0 0.0
2015-Mar-26 03:33N 59°20' E 018°05'0 0.0
2015-Mar-26 02:33N 59°20' E 018°05'0 0.0
2015-Mar-26 01:33N 59°20' E 018°05'0 0.0
2015-Mar-26 00:33N 59°20' E 018°05'0 0.0
2015-Mar-25 23:33N 59°20' E 018°05'0 0.0
2015-Mar-25 22:33N 59°20' E 018°05'0 0.0
2015-Mar-25 21:33N 59°20' E 018°05'0 0.0
2015-Mar-25 20:33N 59°20' E 018°05'0 0.0
2015-Mar-25 19:33N 59°20' E 018°05'2 2.4
2015-Mar-25 18:33N 59°20' E 018°09'2 2.2
2015-Mar-25 17:33N 59°20' E 018°05'2 2.2
2015-Mar-25 16:33N 59°21' E 018°09'2 2.1
2015-Mar-25 15:33N 59°19' E 018°07'2 1.5
2015-Mar-25 14:33N 59°19' E 018°10'3 2.7
2015-Mar-25 13:33N 59°20' E 018°05'2 2.4
2015-Mar-25 12:33N 59°21' E 018°09'2 2.1
2015-Mar-25 11:33N 59°19' E 018°07'1 1.0
2015-Mar-25 10:33N 59°19' E 018°09'0 0.4
2015-Mar-25 09:32N 59°19' E 018°09'1 1.5
2015-Mar-25 08:33N 59°19' E 018°07'2 2.0
2015-Mar-25 07:30N 59°21' E 018°09'2 2.4
2015-Mar-25 06:33N 59°19' E 018°06'1 1.1
2015-Mar-25 05:33N 59°19' E 018°08'2 1.8
2015-Mar-25 04:31N 59°20' E 018°05'0 0.0
2015-Mar-25 03:31N 59°20' E 018°05'0 0.0
2015-Mar-25 02:31N 59°20' E 018°05'0 0.0
2015-Mar-25 01:31N 59°20' E 018°05'0 0.0
2015-Mar-25 00:28N 59°20' E 018°05'0 0.0
2015-Mar-24 23:31N 59°20' E 018°05'0 0.0
2015-Mar-24 22:31N 59°20' E 018°05'0 0.0
2015-Mar-24 21:32N 59°20' E 018°05'0 0.0
2015-Mar-24 20:32N 59°20' E 018°05'0 0.1
2015-Mar-24 19:33N 59°20' E 018°05'2 2.3
2015-Mar-24 18:30N 59°20' E 018°10'2 2.6
2015-Mar-24 17:33N 59°20' E 018°05'2 2.3
2015-Mar-24 16:32N 59°20' E 018°09'2 1.8
2015-Mar-24 15:33N 59°19' E 018°07'1 1.0
2015-Mar-24 14:28N 59°19' E 018°09'2 2.2
2015-Mar-24 13:33N 59°20' E 018°05'2 2.1
2015-Mar-24 12:31N 59°20' E 018°09'2 1.6
2015-Mar-24 11:33N 59°19' E 018°07'1 0.8
2015-Mar-24 10:34N 59°19' E 018°08'1 1.2
2015-Mar-24 09:22N 59°21' E 018°09'2 2.6
2015-Mar-24 08:33N 59°19' E 018°07'2 2.0
2015-Mar-24 07:30N 59°21' E 018°09'2 2.4
2015-Mar-24 06:33N 59°19' E 018°06'1 1.2
2015-Mar-24 05:33N 59°19' E 018°08'2 1.7
2015-Mar-24 04:28N 59°20' E 018°05'0 0.0
2015-Mar-24 03:31N 59°20' E 018°05'0 0.0
2015-Mar-24 02:31N 59°20' E 018°05'0 0.0
2015-Mar-24 01:31N 59°20' E 018°05'0 0.0
2015-Mar-24 00:31N 59°20' E 018°05'0 0.0
2015-Mar-23 23:31N 59°20' E 018°05'0 0.0
2015-Mar-23 22:31N 59°20' E 018°05'0 0.0
2015-Mar-23 21:31N 59°20' E 018°05'0 0.0
2015-Mar-23 20:31N 59°20' E 018°05'0 0.0
2015-Mar-23 19:33N 59°20' E 018°05'3 2.4
2015-Mar-23 18:31N 59°20' E 018°10'2 2.6
2015-Mar-23 17:33N 59°20' E 018°05'2 2.4
2015-Mar-23 16:33N 59°21' E 018°09'2 2.0
2015-Mar-23 15:33N 59°19' E 018°07'1 1.3
2015-Mar-23 14:31N 59°19' E 018°09'3 2.6
2015-Mar-23 13:33N 59°20' E 018°05'2 2.4
2015-Mar-23 12:32N 59°20' E 018°09'2 1.9
2015-Mar-23 11:32N 59°19' E 018°07'1 1.2
2015-Mar-23 10:32N 59°19' E 018°09'0 0.2
2015-Mar-23 09:33N 59°19' E 018°09'1 1.3
2015-Mar-23 08:33N 59°19' E 018°07'2 1.9
2015-Mar-23 07:30N 59°21' E 018°09'2 2.2
2015-Mar-23 06:31N 59°20' E 018°05'1 1.2
2015-Mar-23 05:33N 59°19' E 018°08'2 1.7
2015-Mar-23 04:32N 59°20' E 018°05'0 0.0
2015-Mar-23 03:32N 59°20' E 018°05'0 0.0
2015-Mar-23 02:32N 59°20' E 018°05'0 0.0
2015-Mar-23 01:32N 59°20' E 018°05'0 0.0
2015-Mar-23 00:32N 59°20' E 018°05'0 0.0
2015-Mar-22 23:32N 59°20' E 018°05'0 0.0
2015-Mar-22 22:32N 59°20' E 018°05'0 0.0
2015-Mar-22 21:32N 59°20' E 018°05'0 0.0
2015-Mar-22 20:32N 59°20' E 018°05'0 0.0
2015-Mar-22 19:31N 59°20' E 018°05'0 0.1
2015-Mar-22 18:33N 59°20' E 018°05'2 2.4
2015-Mar-22 17:33N 59°20' E 018°09'2 2.5
2015-Mar-22 16:33N 59°20' E 018°05'3 2.5
2015-Mar-22 15:33N 59°20' E 018°10'3 2.5
2015-Mar-22 14:33N 59°20' E 018°05'2 2.4
2015-Mar-22 13:32N 59°20' E 018°09'2 2.4
2015-Mar-22 12:33N 59°20' E 018°05'2 1.6
2015-Mar-22 11:33N 59°19' E 018°07'1 1.0
2015-Mar-22 10:32N 59°19' E 018°09'1 0.9
2015-Mar-22 09:33N 59°19' E 018°07'1 0.9
2015-Mar-22 08:33N 59°19' E 018°09'2 2.4
2015-Mar-22 07:33N 59°20' E 018°05'0 0.0
2015-Mar-22 06:33N 59°20' E 018°05'0 0.0
2015-Mar-22 05:30N 59°20' E 018°05'0 0.0
2015-Mar-22 04:33N 59°20' E 018°05'0 0.0
2015-Mar-22 03:33N 59°20' E 018°05'0 0.0
2015-Mar-22 02:33N 59°20' E 018°05'0 0.0
2015-Mar-22 01:33N 59°20' E 018°05'0 0.0
2015-Mar-22 00:33N 59°20' E 018°05'0 0.0
2015-Mar-21 23:33N 59°20' E 018°05'0 0.0
2015-Mar-21 22:33N 59°20' E 018°05'0 0.0
2015-Mar-21 21:33N 59°20' E 018°05'0 0.0
2015-Mar-21 20:33N 59°20' E 018°05'0 0.0
2015-Mar-21 19:33N 59°20' E 018°05'0 0.0
2015-Mar-21 18:33N 59°20' E 018°05'2 2.3
2015-Mar-21 17:29N 59°20' E 018°09'2 2.5
2015-Mar-21 16:33N 59°20' E 018°05'2 2.3
2015-Mar-21 15:31N 59°20' E 018°10'3 2.6
2015-Mar-21 14:33N 59°20' E 018°05'2 2.4
2015-Mar-21 13:32N 59°20' E 018°09'2 2.3
2015-Mar-21 12:31N 59°20' E 018°05'1 1.6
2015-Mar-21 11:33N 59°19' E 018°07'1 1.2
2015-Mar-21 10:33N 59°19' E 018°09'1 1.1
2015-Mar-21 09:33N 59°19' E 018°07'1 0.8
2015-Mar-21 08:30N 59°19' E 018°09'2 2.2
2015-Mar-21 07:31N 59°20' E 018°05'0 0.0
2015-Mar-21 06:31N 59°20' E 018°05'0 0.0
2015-Mar-21 05:31N 59°20' E 018°05'0 0.0
2015-Mar-21 04:29N 59°20' E 018°05'0 0.0
2015-Mar-21 03:31N 59°20' E 018°05'0 0.0
2015-Mar-21 02:31N 59°20' E 018°05'0 0.0
2015-Mar-21 01:32N 59°20' E 018°05'0 0.0
2015-Mar-21 00:31N 59°20' E 018°05'0 0.0
2015-Mar-20 23:31N 59°20' E 018°05'0 0.0
2015-Mar-20 22:32N 59°20' E 018°05'0 0.0
2015-Mar-20 21:29N 59°20' E 018°05'0 0.0
2015-Mar-20 20:32N 59°20' E 018°05'0 0.0
2015-Mar-20 19:32N 59°20' E 018°05'2 1.8
2015-Mar-20 18:15N 59°21' E 018°09'2 2.1
2015-Mar-20 17:31N 59°19' E 018°08'2 1.2
2015-Mar-20 16:13N 59°21' E 018°09'1 2.1
2015-Mar-20 15:33N 59°19' E 018°09'1 1.0
2015-Mar-20 14:33N 59°19' E 018°07'1 0.9
2015-Mar-20 13:29N 59°19' E 018°09'1 1.1
2015-Mar-20 12:33N 59°19' E 018°07'1 0.9
2015-Mar-20 11:29N 59°19' E 018°09'1 1.0
2015-Mar-20 10:33N 59°19' E 018°07'1 0.9
2015-Mar-20 09:30N 59°19' E 018°09'1 0.8
2015-Mar-20 08:33N 59°19' E 018°08'1 0.9
2015-Mar-20 07:33N 59°19' E 018°10'1 1.1
2015-Mar-20 06:33N 59°19' E 018°07'1 1.0
2015-Mar-20 05:31N 59°19' E 018°10'3 2.7
2015-Mar-20 04:33N 59°20' E 018°05'0 0.0
2015-Mar-20 03:33N 59°20' E 018°05'0 0.0
2015-Mar-20 02:33N 59°20' E 018°05'0 0.0
2015-Mar-20 01:33N 59°20' E 018°05'0 0.0
2015-Mar-20 00:30N 59°20' E 018°05'0 0.0
2015-Mar-19 23:33N 59°20' E 018°05'0 0.0
2015-Mar-19 22:32N 59°20' E 018°05'0 0.0
2015-Mar-19 21:32N 59°20' E 018°05'0 0.0
2015-Mar-19 20:32N 59°20' E 018°05'1 0.5
2015-Mar-19 19:33N 59°20' E 018°05'2 2.2
2015-Mar-19 18:33N 59°19' E 018°10'1 0.6
2015-Mar-19 17:33N 59°19' E 018°08'0 0.1
2015-Mar-19 16:33N 59°19' E 018°08'0 0.3
2015-Mar-19 15:31N 59°19' E 018°09'1 0.8
2015-Mar-19 14:33N 59°19' E 018°07'1 1.1
2015-Mar-19 13:32N 59°19' E 018°10'1 1.1
2015-Mar-19 12:33N 59°19' E 018°07'1 1.1
2015-Mar-19 11:33N 59°19' E 018°10'1 1.1
2015-Mar-19 10:33N 59°19' E 018°07'1 0.9
2015-Mar-19 09:30N 59°19' E 018°09'1 0.8
2015-Mar-19 08:32N 59°19' E 018°08'1 0.9
2015-Mar-19 07:33N 59°19' E 018°10'1 1.1
2015-Mar-19 06:33N 59°19' E 018°07'1 1.0
2015-Mar-19 05:31N 59°19' E 018°10'3 2.7
2015-Mar-19 04:33N 59°20' E 018°05'0 0.0
2015-Mar-19 03:33N 59°20' E 018°05'0 0.0
2015-Mar-19 02:33N 59°20' E 018°05'0 0.0
2015-Mar-19 01:33N 59°20' E 018°05'0 0.0
2015-Mar-19 00:33N 59°20' E 018°05'0 0.0
2015-Mar-18 23:33N 59°20' E 018°05'0 0.0
2015-Mar-18 22:33N 59°20' E 018°05'0 0.0
2015-Mar-18 21:33N 59°20' E 018°05'0 0.0
2015-Mar-18 20:33N 59°20' E 018°05'0 0.0
2015-Mar-18 19:33N 59°20' E 018°05'3 2.5
2015-Mar-18 18:28N 59°19' E 018°10'1 0.7
2015-Mar-18 17:31N 59°19' E 018°08'0 0.1
2015-Mar-18 16:33N 59°19' E 018°08'0 0.4
2015-Mar-18 15:33N 59°19' E 018°09'1 1.0
2015-Mar-18 14:33N 59°19' E 018°07'1 0.9
2015-Mar-18 13:28N 59°19' E 018°09'1 1.0
2015-Mar-18 12:33N 59°19' E 018°07'1 0.7
2015-Mar-18 11:29N 59°19' E 018°09'1 0.7
2015-Mar-18 10:33N 59°19' E 018°08'1 1.1
2015-Mar-18 09:33N 59°19' E 018°10'1 0.9
2015-Mar-18 08:33N 59°19' E 018°08'1 0.9
2015-Mar-18 07:33N 59°19' E 018°10'1 1.1
2015-Mar-18 06:33N 59°19' E 018°07'1 1.1
2015-Mar-18 05:33N 59°19' E 018°10'3 2.6
2015-Mar-18 04:33N 59°20' E 018°05'0 0.0
2015-Mar-18 03:30N 59°20' E 018°05'0 0.0
2015-Mar-18 02:30N 59°20' E 018°05'0 0.0
2015-Mar-18 01:33N 59°20' E 018°05'0 0.0
2015-Mar-18 00:30N 59°20' E 018°05'0 0.0
2015-Mar-17 23:33N 59°20' E 018°05'0 0.0
2015-Mar-17 22:33N 59°20' E 018°05'0 0.0
2015-Mar-17 21:33N 59°20' E 018°05'0 0.0
2015-Mar-17 20:33N 59°20' E 018°05'  

Dump ship's entire track history